sensor_id;sensor_type;location;lat;lon;timestamp;P1;durP1;ratioP1;P2;durP2;ratioP2
10823;SDS011;39116;59.332;18.034;2023-12-20T00:01:58;9.30;;;2.80;;
10823;SDS011;39116;59.332;18.034;2023-12-20T00:04:21;17.30;;;3.53;;
10823;SDS011;39116;59.332;18.034;2023-12-20T00:06:43;13.23;;;3.20;;
10823;SDS011;39116;59.332;18.034;2023-12-20T00:09:05;13.40;;;2.87;;
10823;SDS011;39116;59.332;18.034;2023-12-20T00:11:26;8.87;;;2.53;;
10823;SDS011;39116;59.332;18.034;2023-12-20T00:13:48;9.33;;;2.83;;
10823;SDS011;39116;59.332;18.034;2023-12-20T00:16:10;12.47;;;2.40;;
10823;SDS011;39116;59.332;18.034;2023-12-20T00:18:32;13.80;;;2.90;;
10823;SDS011;39116;59.332;18.034;2023-12-20T00:20:55;12.43;;;3.10;;
10823;SDS011;39116;59.332;18.034;2023-12-20T00:23:16;12.77;;;3.00;;
10823;SDS011;39116;59.332;18.034;2023-12-20T00:25:38;13.00;;;2.70;;
10823;SDS011;39116;59.332;18.034;2023-12-20T00:28:00;10.93;;;2.73;;
10823;SDS011;39116;59.332;18.034;2023-12-20T00:30:22;11.63;;;3.07;;
10823;SDS011;39116;59.332;18.034;2023-12-20T00:32:44;13.30;;;2.60;;
10823;SDS011;39116;59.332;18.034;2023-12-20T00:35:07;12.90;;;3.17;;
10823;SDS011;39116;59.332;18.034;2023-12-20T00:37:30;10.07;;;2.70;;
10823;SDS011;39116;59.332;18.034;2023-12-20T00:39:51;11.50;;;3.13;;
10823;SDS011;39116;59.332;18.034;2023-12-20T00:42:13;15.03;;;2.83;;
10823;SDS011;39116;59.332;18.034;2023-12-20T00:44:35;14.70;;;3.33;;
10823;SDS011;39116;59.332;18.034;2023-12-20T00:46:57;15.67;;;2.90;;
10823;SDS011;39116;59.332;18.034;2023-12-20T00:49:19;15.00;;;3.17;;
10823;SDS011;39116;59.332;18.034;2023-12-20T00:51:41;15.93;;;3.60;;
10823;SDS011;39116;59.332;18.034;2023-12-20T00:54:04;13.97;;;2.63;;
10823;SDS011;39116;59.332;18.034;2023-12-20T00:56:25;15.00;;;2.87;;
10823;SDS011;39116;59.332;18.034;2023-12-20T00:58:47;17.27;;;3.23;;
10823;SDS011;39116;59.332;18.034;2023-12-20T01:01:09;14.07;;;3.17;;
10823;SDS011;39116;59.332;18.034;2023-12-20T01:03:31;16.00;;;3.43;;
10823;SDS011;39116;59.332;18.034;2023-12-20T01:05:52;14.37;;;3.03;;
10823;SDS011;39116;59.332;18.034;2023-12-20T01:08:14;12.97;;;3.23;;
10823;SDS011;39116;59.332;18.034;2023-12-20T01:10:37;8.93;;;2.47;;
10823;SDS011;39116;59.332;18.034;2023-12-20T01:12:58;12.83;;;2.80;;
10823;SDS011;39116;59.332;18.034;2023-12-20T01:15:20;14.10;;;3.30;;
10823;SDS011;39116;59.332;18.034;2023-12-20T01:17:42;12.67;;;2.70;;
10823;SDS011;39116;59.332;18.034;2023-12-20T01:20:04;17.97;;;2.87;;
10823;SDS011;39116;59.332;18.034;2023-12-20T01:22:26;21.00;;;3.70;;
10823;SDS011;39116;59.332;18.034;2023-12-20T01:24:48;15.93;;;3.90;;
10823;SDS011;39116;59.332;18.034;2023-12-20T01:27:11;12.67;;;2.87;;
10823;SDS011;39116;59.332;18.034;2023-12-20T01:29:33;13.60;;;3.43;;
10823;SDS011;39116;59.332;18.034;2023-12-20T01:31:55;10.40;;;2.67;;
10823;SDS011;39116;59.332;18.034;2023-12-20T01:34:17;17.30;;;3.33;;
10823;SDS011;39116;59.332;18.034;2023-12-20T01:36:38;16.90;;;3.23;;
10823;SDS011;39116;59.332;18.034;2023-12-20T01:39:00;16.77;;;3.27;;
10823;SDS011;39116;59.332;18.034;2023-12-20T01:41:22;22.90;;;3.40;;
10823;SDS011;39116;59.332;18.034;2023-12-20T01:43:45;17.90;;;3.77;;
10823;SDS011;39116;59.332;18.034;2023-12-20T01:46:06;14.33;;;3.30;;
10823;SDS011;39116;59.332;18.034;2023-12-20T01:48:28;15.90;;;3.27;;
10823;SDS011;39116;59.332;18.034;2023-12-20T01:50:52;15.43;;;3.00;;
10823;SDS011;39116;59.332;18.034;2023-12-20T01:53:14;22.73;;;4.50;;
10823;SDS011;39116;59.332;18.034;2023-12-20T01:55:38;12.70;;;3.10;;
10823;SDS011;39116;59.332;18.034;2023-12-20T01:58:00;17.77;;;3.70;;
10823;SDS011;39116;59.332;18.034;2023-12-20T02:02:52;15.77;;;3.43;;
10823;SDS011;39116;59.332;18.034;2023-12-20T02:05:17;15.37;;;3.17;;
10823;SDS011;39116;59.332;18.034;2023-12-20T02:07:39;16.00;;;2.73;;
10823;SDS011;39116;59.332;18.034;2023-12-20T02:10:02;14.40;;;3.07;;
10823;SDS011;39116;59.332;18.034;2023-12-20T02:12:24;14.47;;;3.20;;
10823;SDS011;39116;59.332;18.034;2023-12-20T02:14:47;15.33;;;3.33;;
10823;SDS011;39116;59.332;18.034;2023-12-20T02:17:09;21.30;;;3.77;;
10823;SDS011;39116;59.332;18.034;2023-12-20T02:19:32;17.30;;;3.43;;
10823;SDS011;39116;59.332;18.034;2023-12-20T02:22:06;13.77;;;3.60;;
10823;SDS011;39116;59.332;18.034;2023-12-20T02:24:28;12.97;;;3.13;;
10823;SDS011;39116;59.332;18.034;2023-12-20T02:26:50;22.47;;;3.97;;
10823;SDS011;39116;59.332;18.034;2023-12-20T02:29:11;13.43;;;2.80;;
10823;SDS011;39116;59.332;18.034;2023-12-20T02:31:34;15.33;;;3.27;;
10823;SDS011;39116;59.332;18.034;2023-12-20T02:33:55;13.37;;;3.17;;
10823;SDS011;39116;59.332;18.034;2023-12-20T02:36:17;13.77;;;3.37;;
10823;SDS011;39116;59.332;18.034;2023-12-20T02:38:41;14.10;;;3.13;;
10823;SDS011;39116;59.332;18.034;2023-12-20T02:41:03;15.67;;;3.63;;
10823;SDS011;39116;59.332;18.034;2023-12-20T02:43:25;14.33;;;3.10;;
10823;SDS011;39116;59.332;18.034;2023-12-20T02:45:46;13.40;;;3.00;;
10823;SDS011;39116;59.332;18.034;2023-12-20T02:48:08;20.00;;;3.20;;
10823;SDS011;39116;59.332;18.034;2023-12-20T02:50:30;17.47;;;3.30;;
10823;SDS011;39116;59.332;18.034;2023-12-20T02:52:52;13.03;;;2.63;;
10823;SDS011;39116;59.332;18.034;2023-12-20T02:55:16;16.17;;;3.30;;
10823;SDS011;39116;59.332;18.034;2023-12-20T02:57:38;11.60;;;2.70;;
10823;SDS011;39116;59.332;18.034;2023-12-20T03:00:02;15.47;;;3.80;;
10823;SDS011;39116;59.332;18.034;2023-12-20T03:02:23;14.87;;;3.17;;
10823;SDS011;39116;59.332;18.034;2023-12-20T03:04:45;10.47;;;2.90;;
10823;SDS011;39116;59.332;18.034;2023-12-20T03:07:06;11.20;;;2.83;;
10823;SDS011;39116;59.332;18.034;2023-12-20T03:09:28;14.57;;;2.90;;
10823;SDS011;39116;59.332;18.034;2023-12-20T03:11:52;13.43;;;2.83;;
10823;SDS011;39116;59.332;18.034;2023-12-20T03:14:14;12.80;;;3.27;;
10823;SDS011;39116;59.332;18.034;2023-12-20T03:16:36;16.67;;;3.10;;
10823;SDS011;39116;59.332;18.034;2023-12-20T03:18:58;16.30;;;2.93;;
10823;SDS011;39116;59.332;18.034;2023-12-20T03:21:20;11.43;;;2.77;;
10823;SDS011;39116;59.332;18.034;2023-12-20T03:23:42;15.70;;;2.83;;
10823;SDS011;39116;59.332;18.034;2023-12-20T03:26:06;14.77;;;3.03;;
10823;SDS011;39116;59.332;18.034;2023-12-20T03:28:29;13.05;;;2.85;;
10823;SDS011;39116;59.332;18.034;2023-12-20T03:30:51;12.27;;;2.83;;
10823;SDS011;39116;59.332;18.034;2023-12-20T03:33:13;9.20;;;2.80;;
10823;SDS011;39116;59.332;18.034;2023-12-20T03:35:35;15.00;;;2.97;;
10823;SDS011;39116;59.332;18.034;2023-12-20T03:37:57;13.00;;;3.13;;
10823;SDS011;39116;59.332;18.034;2023-12-20T03:40:20;8.97;;;2.77;;
10823;SDS011;39116;59.332;18.034;2023-12-20T03:42:42;15.87;;;2.73;;
10823;SDS011;39116;59.332;18.034;2023-12-20T03:45:09;13.30;;;3.33;;
10823;SDS011;39116;59.332;18.034;2023-12-20T03:47:30;8.43;;;2.33;;
10823;SDS011;39116;59.332;18.034;2023-12-20T03:49:52;10.80;;;2.60;;
10823;SDS011;39116;59.332;18.034;2023-12-20T03:52:14;9.93;;;2.57;;
10823;SDS011;39116;59.332;18.034;2023-12-20T03:54:39;13.07;;;3.17;;
10823;SDS011;39116;59.332;18.034;2023-12-20T03:57:02;10.33;;;3.17;;
10823;SDS011;39116;59.332;18.034;2023-12-20T03:59:24;12.00;;;2.90;;
10823;SDS011;39116;59.332;18.034;2023-12-20T04:01:47;9.43;;;2.25;;
10823;SDS011;39116;59.332;18.034;2023-12-20T04:04:09;9.48;;;3.10;;
10823;SDS011;39116;59.332;18.034;2023-12-20T04:06:31;17.13;;;3.23;;
10823;SDS011;39116;59.332;18.034;2023-12-20T04:08:53;15.85;;;2.60;;
10823;SDS011;39116;59.332;18.034;2023-12-20T04:11:15;13.63;;;3.00;;
10823;SDS011;39116;59.332;18.034;2023-12-20T04:13:37;10.38;;;2.95;;
10823;SDS011;39116;59.332;18.034;2023-12-20T04:15:58;9.82;;;2.85;;
10823;SDS011;39116;59.332;18.034;2023-12-20T04:18:21;11.37;;;3.33;;
10823;SDS011;39116;59.332;18.034;2023-12-20T04:20:44;10.70;;;3.13;;
10823;SDS011;39116;59.332;18.034;2023-12-20T04:23:08;11.23;;;2.57;;
10823;SDS011;39116;59.332;18.034;2023-12-20T04:25:30;12.43;;;3.53;;
10823;SDS011;39116;59.332;18.034;2023-12-20T04:27:52;12.93;;;3.10;;
10823;SDS011;39116;59.332;18.034;2023-12-20T04:30:13;12.17;;;3.13;;
10823;SDS011;39116;59.332;18.034;2023-12-20T04:32:35;11.17;;;2.87;;
10823;SDS011;39116;59.332;18.034;2023-12-20T04:34:58;12.85;;;2.55;;
10823;SDS011;39116;59.332;18.034;2023-12-20T04:37:20;13.50;;;2.60;;
10823;SDS011;39116;59.332;18.034;2023-12-20T04:39:42;9.03;;;2.53;;
10823;SDS011;39116;59.332;18.034;2023-12-20T04:42:06;8.43;;;2.60;;
10823;SDS011;39116;59.332;18.034;2023-12-20T04:44:28;7.68;;;2.63;;
10823;SDS011;39116;59.332;18.034;2023-12-20T04:46:50;12.00;;;3.13;;
10823;SDS011;39116;59.332;18.034;2023-12-20T04:49:12;10.60;;;3.07;;
10823;SDS011;39116;59.332;18.034;2023-12-20T04:51:36;10.57;;;3.17;;
10823;SDS011;39116;59.332;18.034;2023-12-20T04:53:58;10.63;;;3.43;;
10823;SDS011;39116;59.332;18.034;2023-12-20T04:56:20;11.57;;;3.20;;
10823;SDS011;39116;59.332;18.034;2023-12-20T04:58:42;9.80;;;2.90;;
10823;SDS011;39116;59.332;18.034;2023-12-20T05:01:04;9.87;;;3.17;;
10823;SDS011;39116;59.332;18.034;2023-12-20T05:03:27;7.67;;;2.70;;
10823;SDS011;39116;59.332;18.034;2023-12-20T05:05:49;9.33;;;3.53;;
10823;SDS011;39116;59.332;18.034;2023-12-20T05:08:12;10.27;;;3.40;;
10823;SDS011;39116;59.332;18.034;2023-12-20T05:10:34;10.03;;;2.87;;
10823;SDS011;39116;59.332;18.034;2023-12-20T05:12:56;12.83;;;3.10;;
10823;SDS011;39116;59.332;18.034;2023-12-20T05:15:21;8.73;;;2.90;;
10823;SDS011;39116;59.332;18.034;2023-12-20T05:17:43;7.57;;;2.83;;
10823;SDS011;39116;59.332;18.034;2023-12-20T05:20:05;7.60;;;2.60;;
10823;SDS011;39116;59.332;18.034;2023-12-20T05:22:27;8.80;;;2.60;;
10823;SDS011;39116;59.332;18.034;2023-12-20T05:24:50;8.07;;;3.33;;
10823;SDS011;39116;59.332;18.034;2023-12-20T05:27:13;10.17;;;2.80;;
10823;SDS011;39116;59.332;18.034;2023-12-20T05:29:35;9.53;;;3.27;;
10823;SDS011;39116;59.332;18.034;2023-12-20T05:31:57;10.30;;;3.50;;
10823;SDS011;39116;59.332;18.034;2023-12-20T05:34:19;8.40;;;2.93;;
10823;SDS011;39116;59.332;18.034;2023-12-20T05:36:44;9.13;;;3.33;;
10823;SDS011;39116;59.332;18.034;2023-12-20T05:39:06;13.60;;;3.20;;
10823;SDS011;39116;59.332;18.034;2023-12-20T05:41:30;12.17;;;3.53;;
10823;SDS011;39116;59.332;18.034;2023-12-20T05:43:51;10.87;;;3.13;;
10823;SDS011;39116;59.332;18.034;2023-12-20T05:46:13;12.67;;;3.07;;
10823;SDS011;39116;59.332;18.034;2023-12-20T05:48:35;8.93;;;2.90;;
10823;SDS011;39116;59.332;18.034;2023-12-20T05:50:57;8.50;;;3.27;;
10823;SDS011;39116;59.332;18.034;2023-12-20T05:53:19;9.33;;;2.83;;
10823;SDS011;39116;59.332;18.034;2023-12-20T05:55:41;11.33;;;2.90;;
10823;SDS011;39116;59.332;18.034;2023-12-20T05:58:04;10.23;;;3.47;;
10823;SDS011;39116;59.332;18.034;2023-12-20T06:00:26;18.03;;;3.50;;
10823;SDS011;39116;59.332;18.034;2023-12-20T06:02:48;16.37;;;3.47;;
10823;SDS011;39116;59.332;18.034;2023-12-20T06:05:10;23.37;;;4.10;;
10823;SDS011;39116;59.332;18.034;2023-12-20T06:07:32;22.23;;;3.97;;
10823;SDS011;39116;59.332;18.034;2023-12-20T06:09:54;8.63;;;3.60;;
10823;SDS011;39116;59.332;18.034;2023-12-20T06:12:16;19.35;;;4.40;;
10823;SDS011;39116;59.332;18.034;2023-12-20T06:14:39;11.30;;;3.27;;
10823;SDS011;39116;59.332;18.034;2023-12-20T06:17:01;13.13;;;4.37;;
10823;SDS011;39116;59.332;18.034;2023-12-20T06:19:23;9.33;;;4.60;;
10823;SDS011;39116;59.332;18.034;2023-12-20T06:21:45;16.67;;;3.93;;
10823;SDS011;39116;59.332;18.034;2023-12-20T06:24:07;30.27;;;4.77;;
10823;SDS011;39116;59.332;18.034;2023-12-20T06:26:29;15.50;;;3.97;;
10823;SDS011;39116;59.332;18.034;2023-12-20T06:28:51;25.53;;;4.80;;
10823;SDS011;39116;59.332;18.034;2023-12-20T06:31:14;15.03;;;4.43;;
10823;SDS011;39116;59.332;18.034;2023-12-20T06:33:36;27.50;;;4.90;;
10823;SDS011;39116;59.332;18.034;2023-12-20T06:36:00;30.10;;;5.50;;
10823;SDS011;39116;59.332;18.034;2023-12-20T06:38:23;81.30;;;7.73;;
10823;SDS011;39116;59.332;18.034;2023-12-20T06:40:45;21.53;;;5.50;;
10823;SDS011;39116;59.332;18.034;2023-12-20T06:43:07;33.10;;;5.47;;
10823;SDS011;39116;59.332;18.034;2023-12-20T06:45:29;22.07;;;5.27;;
10823;SDS011;39116;59.332;18.034;2023-12-20T06:47:52;16.50;;;5.33;;
10823;SDS011;39116;59.332;18.034;2023-12-20T06:50:14;20.10;;;5.97;;
10823;SDS011;39116;59.332;18.034;2023-12-20T06:52:36;17.40;;;5.57;;
10823;SDS011;39116;59.332;18.034;2023-12-20T06:54:59;27.13;;;6.37;;
10823;SDS011;39116;59.332;18.034;2023-12-20T06:57:21;22.97;;;6.73;;
10823;SDS011;39116;59.332;18.034;2023-12-20T06:59:42;55.80;;;8.80;;
10823;SDS011;39116;59.332;18.034;2023-12-20T07:02:04;39.07;;;9.87;;
10823;SDS011;39116;59.332;18.034;2023-12-20T07:04:28;34.87;;;9.13;;
10823;SDS011;39116;59.332;18.034;2023-12-20T07:06:50;34.03;;;10.00;;
10823;SDS011;39116;59.332;18.034;2023-12-20T07:09:14;22.87;;;8.07;;
10823;SDS011;39116;59.332;18.034;2023-12-20T07:11:35;23.23;;;8.43;;
10823;SDS011;39116;59.332;18.034;2023-12-20T07:13:57;19.63;;;7.77;;
10823;SDS011;39116;59.332;18.034;2023-12-20T07:16:19;26.73;;;8.30;;
10823;SDS011;39116;59.332;18.034;2023-12-20T07:18:41;22.50;;;7.20;;
10823;SDS011;39116;59.332;18.034;2023-12-20T07:21:05;28.63;;;7.87;;
10823;SDS011;39116;59.332;18.034;2023-12-20T07:23:28;19.25;;;7.43;;
10823;SDS011;39116;59.332;18.034;2023-12-20T07:25:50;20.37;;;8.00;;
10823;SDS011;39116;59.332;18.034;2023-12-20T07:28:12;23.52;;;8.88;;
10823;SDS011;39116;59.332;18.034;2023-12-20T07:30:33;19.13;;;9.00;;
10823;SDS011;39116;59.332;18.034;2023-12-20T07:32:55;26.15;;;9.38;;
10823;SDS011;39116;59.332;18.034;2023-12-20T07:35:18;24.50;;;9.47;;
10823;SDS011;39116;59.332;18.034;2023-12-20T07:37:41;24.85;;;9.45;;
10823;SDS011;39116;59.332;18.034;2023-12-20T07:40:03;23.02;;;9.30;;
10823;SDS011;39116;59.332;18.034;2023-12-20T07:42:25;24.30;;;9.63;;
10823;SDS011;39116;59.332;18.034;2023-12-20T07:44:47;24.10;;;9.48;;
10823;SDS011;39116;59.332;18.034;2023-12-20T07:47:08;24.83;;;9.07;;
10823;SDS011;39116;59.332;18.034;2023-12-20T07:49:32;16.85;;;8.57;;
10823;SDS011;39116;59.332;18.034;2023-12-20T07:51:54;22.05;;;8.52;;
10823;SDS011;39116;59.332;18.034;2023-12-20T07:54:17;18.17;;;7.78;;
10823;SDS011;39116;59.332;18.034;2023-12-20T07:59:04;21.67;;;7.20;;
10823;SDS011;39116;59.332;18.034;2023-12-20T08:01:27;20.77;;;7.30;;
10823;SDS011;39116;59.332;18.034;2023-12-20T08:03:49;16.40;;;6.17;;
10823;SDS011;39116;59.332;18.034;2023-12-20T08:06:10;18.65;;;6.63;;
10823;SDS011;39116;59.332;18.034;2023-12-20T08:08:32;17.25;;;5.97;;
10823;SDS011;39116;59.332;18.034;2023-12-20T08:10:55;14.43;;;6.18;;
10823;SDS011;39116;59.332;18.034;2023-12-20T08:13:20;16.48;;;5.75;;
10823;SDS011;39116;59.332;18.034;2023-12-20T08:15:46;13.38;;;5.68;;
10823;SDS011;39116;59.332;18.034;2023-12-20T08:18:07;15.80;;;6.20;;
10823;SDS011;39116;59.332;18.034;2023-12-20T08:20:29;12.35;;;5.88;;
10823;SDS011;39116;59.332;18.034;2023-12-20T08:22:51;16.88;;;5.93;;
10823;SDS011;39116;59.332;18.034;2023-12-20T08:25:11;11.52;;;5.15;;
10823;SDS011;39116;59.332;18.034;2023-12-20T08:27:38;10.75;;;5.10;;
10823;SDS011;39116;59.332;18.034;2023-12-20T08:29:59;15.23;;;6.40;;
10823;SDS011;39116;59.332;18.034;2023-12-20T08:32:21;15.65;;;6.95;;
10823;SDS011;39116;59.332;18.034;2023-12-20T08:34:43;16.27;;;5.50;;
10823;SDS011;39116;59.332;18.034;2023-12-20T08:37:05;18.55;;;5.18;;
10823;SDS011;39116;59.332;18.034;2023-12-20T08:39:26;16.13;;;5.40;;
10823;SDS011;39116;59.332;18.034;2023-12-20T08:41:50;14.35;;;4.63;;
10823;SDS011;39116;59.332;18.034;2023-12-20T08:44:13;16.23;;;5.82;;
10823;SDS011;39116;59.332;18.034;2023-12-20T08:46:35;12.55;;;5.40;;
10823;SDS011;39116;59.332;18.034;2023-12-20T08:48:56;15.77;;;5.80;;
10823;SDS011;39116;59.332;18.034;2023-12-20T08:51:18;13.88;;;6.18;;
10823;SDS011;39116;59.332;18.034;2023-12-20T08:53:41;13.25;;;5.70;;
10823;SDS011;39116;59.332;18.034;2023-12-20T08:56:05;17.73;;;6.38;;
10823;SDS011;39116;59.332;18.034;2023-12-20T08:58:27;15.05;;;5.38;;
10823;SDS011;39116;59.332;18.034;2023-12-20T09:00:50;14.80;;;5.40;;
10823;SDS011;39116;59.332;18.034;2023-12-20T09:03:12;13.27;;;5.00;;
10823;SDS011;39116;59.332;18.034;2023-12-20T09:05:33;17.03;;;5.27;;
10823;SDS011;39116;59.332;18.034;2023-12-20T09:07:55;16.42;;;4.50;;
10823;SDS011;39116;59.332;18.034;2023-12-20T09:10:17;12.60;;;4.80;;
10823;SDS011;39116;59.332;18.034;2023-12-20T09:12:42;15.48;;;4.25;;
10823;SDS011;39116;59.332;18.034;2023-12-20T09:15:04;14.43;;;5.38;;
10823;SDS011;39116;59.332;18.034;2023-12-20T09:17:27;17.13;;;5.10;;
10823;SDS011;39116;59.332;18.034;2023-12-20T09:19:49;14.03;;;4.20;;
10823;SDS011;39116;59.332;18.034;2023-12-20T09:22:12;15.00;;;4.32;;
10823;SDS011;39116;59.332;18.034;2023-12-20T09:24:34;10.60;;;4.32;;
10823;SDS011;39116;59.332;18.034;2023-12-20T09:26:56;12.52;;;4.25;;
10823;SDS011;39116;59.332;18.034;2023-12-20T09:29:18;13.55;;;4.57;;
10823;SDS011;39116;59.332;18.034;2023-12-20T09:31:39;10.07;;;4.45;;
10823;SDS011;39116;59.332;18.034;2023-12-20T09:34:02;12.57;;;4.60;;
10823;SDS011;39116;59.332;18.034;2023-12-20T09:36:24;14.13;;;4.68;;
10823;SDS011;39116;59.332;18.034;2023-12-20T09:38:46;14.90;;;5.13;;
10823;SDS011;39116;59.332;18.034;2023-12-20T09:41:08;13.45;;;4.70;;
10823;SDS011;39116;59.332;18.034;2023-12-20T09:43:29;12.68;;;3.80;;
10823;SDS011;39116;59.332;18.034;2023-12-20T09:45:53;13.07;;;3.97;;
10823;SDS011;39116;59.332;18.034;2023-12-20T09:48:15;14.40;;;3.67;;
10823;SDS011;39116;59.332;18.034;2023-12-20T09:50:40;9.80;;;3.92;;
10823;SDS011;39116;59.332;18.034;2023-12-20T09:53:02;8.93;;;3.90;;
10823;SDS011;39116;59.332;18.034;2023-12-20T09:55:25;9.88;;;3.95;;
10823;SDS011;39116;59.332;18.034;2023-12-20T09:57:47;8.60;;;4.00;;
10823;SDS011;39116;59.332;18.034;2023-12-20T10:00:09;11.63;;;3.83;;
10823;SDS011;39116;59.332;18.034;2023-12-20T10:02:31;11.10;;;4.07;;
10823;SDS011;39116;59.332;18.034;2023-12-20T10:04:54;9.43;;;3.72;;
10823;SDS011;39116;59.332;18.034;2023-12-20T10:07:17;11.68;;;3.72;;
10823;SDS011;39116;59.332;18.034;2023-12-20T10:09:39;8.80;;;3.60;;
10823;SDS011;39116;59.332;18.034;2023-12-20T10:12:00;11.30;;;3.95;;
10823;SDS011;39116;59.332;18.034;2023-12-20T10:14:22;13.82;;;4.18;;
10823;SDS011;39116;59.332;18.034;2023-12-20T10:16:44;11.15;;;3.85;;
10823;SDS011;39116;59.332;18.034;2023-12-20T10:19:06;11.50;;;4.10;;
10823;SDS011;39116;59.332;18.034;2023-12-20T10:21:27;10.38;;;3.53;;
10823;SDS011;39116;59.332;18.034;2023-12-20T10:23:51;10.57;;;3.45;;
10823;SDS011;39116;59.332;18.034;2023-12-20T10:26:18;11.40;;;3.97;;
10823;SDS011;39116;59.332;18.034;2023-12-20T10:28:40;11.15;;;3.72;;
10823;SDS011;39116;59.332;18.034;2023-12-20T10:31:02;8.93;;;3.05;;
10823;SDS011;39116;59.332;18.034;2023-12-20T10:33:24;11.23;;;3.83;;
10823;SDS011;39116;59.332;18.034;2023-12-20T10:35:46;10.10;;;3.42;;
10823;SDS011;39116;59.332;18.034;2023-12-20T10:38:08;40.63;;;7.57;;
10823;SDS011;39116;59.332;18.034;2023-12-20T10:40:31;10.73;;;4.20;;
10823;SDS011;39116;59.332;18.034;2023-12-20T10:42:56;12.65;;;4.35;;
10823;SDS011;39116;59.332;18.034;2023-12-20T10:45:19;13.10;;;3.60;;
10823;SDS011;39116;59.332;18.034;2023-12-20T10:47:41;9.85;;;3.78;;
10823;SDS011;39116;59.332;18.034;2023-12-20T10:50:04;13.57;;;3.67;;
10823;SDS011;39116;59.332;18.034;2023-12-20T10:52:26;10.02;;;3.65;;
10823;SDS011;39116;59.332;18.034;2023-12-20T10:54:49;14.35;;;4.13;;
10823;SDS011;39116;59.332;18.034;2023-12-20T10:57:12;11.02;;;3.50;;
10823;SDS011;39116;59.332;18.034;2023-12-20T10:59:36;9.80;;;3.58;;
10823;SDS011;39116;59.332;18.034;2023-12-20T11:01:57;9.65;;;4.00;;
10823;SDS011;39116;59.332;18.034;2023-12-20T11:04:21;13.27;;;4.18;;
10823;SDS011;39116;59.332;18.034;2023-12-20T11:06:46;9.57;;;3.33;;
10823;SDS011;39116;59.332;18.034;2023-12-20T11:09:12;7.82;;;3.40;;
10823;SDS011;39116;59.332;18.034;2023-12-20T11:11:37;7.72;;;2.88;;
10823;SDS011;39116;59.332;18.034;2023-12-20T11:14:03;7.80;;;3.08;;
10823;SDS011;39116;59.332;18.034;2023-12-20T11:16:26;9.45;;;3.00;;
10823;SDS011;39116;59.332;18.034;2023-12-20T11:18:48;9.00;;;3.20;;
10823;SDS011;39116;59.332;18.034;2023-12-20T11:21:11;9.52;;;3.28;;
10823;SDS011;39116;59.332;18.034;2023-12-20T11:23:34;8.02;;;3.17;;
10823;SDS011;39116;59.332;18.034;2023-12-20T11:25:56;8.32;;;3.05;;
10823;SDS011;39116;59.332;18.034;2023-12-20T11:28:21;9.52;;;3.15;;
10823;SDS011;39116;59.332;18.034;2023-12-20T11:30:47;8.80;;;2.97;;
10823;SDS011;39116;59.332;18.034;2023-12-20T11:33:09;10.07;;;3.00;;
10823;SDS011;39116;59.332;18.034;2023-12-20T11:35:31;5.93;;;2.58;;
10823;SDS011;39116;59.332;18.034;2023-12-20T11:37:52;7.60;;;2.95;;
10823;SDS011;39116;59.332;18.034;2023-12-20T11:40:14;11.98;;;3.15;;
10823;SDS011;39116;59.332;18.034;2023-12-20T11:42:37;6.43;;;2.55;;
10823;SDS011;39116;59.332;18.034;2023-12-20T11:44:59;5.57;;;2.72;;
10823;SDS011;39116;59.332;18.034;2023-12-20T11:47:25;5.90;;;2.70;;
10823;SDS011;39116;59.332;18.034;2023-12-20T11:49:47;6.50;;;2.50;;
10823;SDS011;39116;59.332;18.034;2023-12-20T11:52:08;6.35;;;2.50;;
10823;SDS011;39116;59.332;18.034;2023-12-20T11:54:30;6.72;;;2.50;;
10823;SDS011;39116;59.332;18.034;2023-12-20T11:56:52;6.25;;;2.70;;
10823;SDS011;39116;59.332;18.034;2023-12-20T11:59:13;6.38;;;2.47;;
10823;SDS011;39116;59.332;18.034;2023-12-20T12:01:35;7.60;;;2.25;;
10823;SDS011;39116;59.332;18.034;2023-12-20T12:04:03;7.13;;;2.40;;
10823;SDS011;39116;59.332;18.034;2023-12-20T12:06:25;8.32;;;2.60;;
10823;SDS011;39116;59.332;18.034;2023-12-20T12:08:47;4.32;;;2.60;;
10823;SDS011;39116;59.332;18.034;2023-12-20T12:11:08;7.07;;;2.58;;
10823;SDS011;39116;59.332;18.034;2023-12-20T12:13:30;4.00;;;2.40;;
10823;SDS011;39116;59.332;18.034;2023-12-20T12:15:51;5.78;;;2.13;;
10823;SDS011;39116;59.332;18.034;2023-12-20T12:18:15;4.88;;;1.90;;
10823;SDS011;39116;59.332;18.034;2023-12-20T12:20:38;4.07;;;2.20;;
10823;SDS011;39116;59.332;18.034;2023-12-20T12:23:00;6.25;;;2.00;;
10823;SDS011;39116;59.332;18.034;2023-12-20T12:25:22;4.30;;;2.13;;
10823;SDS011;39116;59.332;18.034;2023-12-20T12:27:43;4.50;;;1.80;;
10823;SDS011;39116;59.332;18.034;2023-12-20T12:30:05;4.45;;;2.05;;
10823;SDS011;39116;59.332;18.034;2023-12-20T12:32:28;2.78;;;1.52;;
10823;SDS011;39116;59.332;18.034;2023-12-20T12:34:50;2.15;;;1.70;;
10823;SDS011;39116;59.332;18.034;2023-12-20T12:37:13;3.25;;;1.63;;
10823;SDS011;39116;59.332;18.034;2023-12-20T12:39:35;2.63;;;1.58;;
10823;SDS011;39116;59.332;18.034;2023-12-20T12:41:57;2.10;;;1.52;;
10823;SDS011;39116;59.332;18.034;2023-12-20T12:44:19;2.08;;;1.60;;
10823;SDS011;39116;59.332;18.034;2023-12-20T12:46:42;4.00;;;1.67;;
10823;SDS011;39116;59.332;18.034;2023-12-20T12:49:04;2.08;;;1.55;;
10823;SDS011;39116;59.332;18.034;2023-12-20T12:51:26;4.85;;;1.80;;
10823;SDS011;39116;59.332;18.034;2023-12-20T12:53:49;6.97;;;1.58;;
10823;SDS011;39116;59.332;18.034;2023-12-20T12:56:11;2.72;;;1.80;;
10823;SDS011;39116;59.332;18.034;2023-12-20T12:58:34;2.63;;;1.50;;
10823;SDS011;39116;59.332;18.034;2023-12-20T13:00:55;2.85;;;1.75;;
10823;SDS011;39116;59.332;18.034;2023-12-20T13:03:17;4.00;;;1.90;;
10823;SDS011;39116;59.332;18.034;2023-12-20T13:05:39;3.00;;;1.75;;
10823;SDS011;39116;59.332;18.034;2023-12-20T13:08:00;3.15;;;1.80;;
10823;SDS011;39116;59.332;18.034;2023-12-20T13:10:23;10.90;;;4.90;;
10823;SDS011;39116;59.332;18.034;2023-12-20T13:12:45;38.33;;;16.50;;
10823;SDS011;39116;59.332;18.034;2023-12-20T13:15:07;10.77;;;6.28;;
10823;SDS011;39116;59.332;18.034;2023-12-20T13:17:29;6.70;;;3.78;;
10823;SDS011;39116;59.332;18.034;2023-12-20T13:19:51;4.63;;;2.70;;
10823;SDS011;39116;59.332;18.034;2023-12-20T13:22:12;5.93;;;3.17;;
10823;SDS011;39116;59.332;18.034;2023-12-20T13:24:34;4.63;;;4.15;;
10823;SDS011;39116;59.332;18.034;2023-12-20T13:26:57;8.80;;;5.80;;
10823;SDS011;39116;59.332;18.034;2023-12-20T13:29:19;3.78;;;2.80;;
10823;SDS011;39116;59.332;18.034;2023-12-20T13:31:40;3.63;;;2.30;;
10823;SDS011;39116;59.332;18.034;2023-12-20T13:34:02;5.50;;;2.20;;
10823;SDS011;39116;59.332;18.034;2023-12-20T13:36:24;5.43;;;3.17;;
10823;SDS011;39116;59.332;18.034;2023-12-20T13:38:46;5.50;;;2.60;;
10823;SDS011;39116;59.332;18.034;2023-12-20T13:41:08;10.95;;;4.80;;
10823;SDS011;39116;59.332;18.034;2023-12-20T13:43:31;5.72;;;4.45;;
10823;SDS011;39116;59.332;18.034;2023-12-20T13:45:52;6.32;;;2.70;;
10823;SDS011;39116;59.332;18.034;2023-12-20T13:48:14;6.88;;;2.80;;
10823;SDS011;39116;59.332;18.034;2023-12-20T13:50:36;6.05;;;2.38;;
10823;SDS011;39116;59.332;18.034;2023-12-20T13:52:58;6.18;;;2.72;;
10823;SDS011;39116;59.332;18.034;2023-12-20T13:55:21;6.93;;;2.80;;
10823;SDS011;39116;59.332;18.034;2023-12-20T13:57:45;6.53;;;3.08;;
10823;SDS011;39116;59.332;18.034;2023-12-20T14:00:10;5.97;;;3.03;;
10823;SDS011;39116;59.332;18.034;2023-12-20T14:02:35;5.00;;;2.70;;